createdAt,value
2023-04-28T00:02:37.852Z,28.08
2023-04-28T00:05:25.690Z,25.10
2023-04-28T00:08:14.749Z,28.80
2023-04-28T00:11:02.341Z,24.10
2023-04-28T00:13:49.726Z,25.92
2023-04-28T00:16:37.537Z,28.77
2023-04-28T00:19:25.156Z,27.00
2023-04-28T00:22:13.015Z,24.02
2023-04-28T00:25:02.261Z,27.92
2023-04-28T00:27:50.290Z,24.23
2023-04-28T00:30:38.090Z,22.60
2023-04-28T00:33:25.552Z,24.65
2023-04-28T00:36:13.411Z,21.42
2023-04-28T00:39:01.279Z,22.48
2023-04-28T00:41:50.184Z,23.90
2023-04-28T00:44:41.094Z,22.52
2023-04-28T00:47:28.568Z,23.10
2023-04-28T00:50:18.302Z,24.45
2023-04-28T00:53:06.044Z,35.55
2023-04-28T00:55:57.210Z,30.80
2023-04-28T00:58:46.557Z,25.17
2023-04-28T01:01:34.397Z,25.10
2023-04-28T01:04:23.227Z,28.73
2023-04-28T01:07:11.850Z,28.40
2023-04-28T01:09:59.680Z,25.33
2023-04-28T01:12:51.726Z,28.35
2023-04-28T01:15:41.424Z,29.50
2023-04-28T01:18:29.037Z,41.28
2023-04-28T01:21:29.074Z,35.47
2023-04-28T01:24:19.417Z,33.72
2023-04-28T01:27:07.300Z,33.42
2023-04-28T01:29:54.925Z,33.83
2023-04-28T01:32:43.074Z,40.70
2023-04-28T01:35:31.129Z,32.63
2023-04-28T01:38:18.520Z,35.35
2023-04-28T01:41:07.455Z,32.60
2023-04-28T01:43:55.255Z,32.25
2023-04-28T01:46:43.009Z,34.22
2023-04-28T01:49:30.239Z,32.10
2023-04-28T01:52:19.894Z,36.45
2023-04-28T01:55:08.829Z,34.58
2023-04-28T01:57:59.594Z,27.65
2023-04-28T02:00:49.349Z,37.80
2023-04-28T02:03:37.651Z,34.20
2023-04-28T02:06:25.356Z,35.72
2023-04-28T02:09:12.831Z,32.00
2023-04-28T02:12:02.455Z,33.35
2023-04-28T02:14:52.266Z,32.00
2023-04-28T02:17:40.859Z,29.75
2023-04-28T02:20:28.342Z,33.15
2023-04-28T02:23:16.089Z,34.47
2023-04-28T02:26:03.709Z,28.10
2023-04-28T02:28:51.229Z,32.58
2023-04-28T02:31:40.512Z,32.22
2023-04-28T02:34:28.357Z,28.52
2023-04-28T02:37:16.152Z,33.70
2023-04-28T02:40:03.752Z,27.33
2023-04-28T02:42:51.146Z,33.28
2023-04-28T02:45:38.780Z,27.80
2023-04-28T02:48:27.798Z,30.20
2023-04-28T02:51:15.469Z,33.38
2023-04-28T02:54:02.838Z,32.33
2023-04-28T02:56:50.517Z,33.83
2023-04-28T02:59:38.344Z,33.42
2023-04-28T03:02:25.834Z,37.20
2023-04-28T03:05:14.552Z,33.67
2023-04-28T03:08:02.183Z,32.92
2023-04-28T03:10:49.749Z,28.35
2023-04-28T03:13:37.284Z,28.40
2023-04-28T03:16:25.424Z,29.98
2023-04-28T03:19:13.768Z,33.92
2023-04-28T03:22:02.832Z,33.65
2023-04-28T03:24:53.808Z,29.02
2023-04-28T03:27:41.221Z,33.63
2023-04-28T03:30:28.906Z,33.35
2023-04-28T03:33:18.068Z,30.58
2023-04-28T03:36:06.040Z,28.77
2023-04-28T03:38:55.180Z,26.58
2023-04-28T03:41:42.582Z,28.55
2023-04-28T03:44:49.059Z,33.55
2023-04-28T03:47:36.850Z,33.25
2023-04-28T03:50:26.566Z,29.30
2023-04-28T03:53:15.560Z,26.60
2023-04-28T03:56:04.396Z,32.95
2023-04-28T03:58:51.813Z,27.88
2023-04-28T04:01:39.484Z,32.00
2023-04-28T04:04:27.495Z,27.38
2023-04-28T04:07:17.064Z,31.33
2023-04-28T04:10:05.046Z,32.30
2023-04-28T04:12:56.077Z,29.33
2023-04-28T04:15:43.990Z,29.48
2023-04-28T04:18:31.895Z,31.15
2023-04-28T04:21:52.065Z,32.30
2023-04-28T04:24:39.763Z,27.92
2023-04-28T04:27:27.403Z,29.83
2023-04-28T04:30:17.346Z,29.10
2023-04-28T04:33:05.001Z,32.47
2023-04-28T04:35:53.252Z,30.38
2023-04-28T04:38:40.939Z,33.38
2023-04-28T04:41:36.774Z,36.47
2023-04-28T04:44:39.907Z,30.67
2023-04-28T04:47:33.520Z,28.30
2023-04-28T04:50:21.421Z,32.00
2023-04-28T04:53:12.693Z,27.58
2023-04-28T04:56:02.786Z,29.15
2023-04-28T04:58:53.070Z,26.73
2023-04-28T05:01:43.467Z,29.13
2023-04-28T05:04:32.825Z,31.23
2023-04-28T05:07:20.326Z,33.30
2023-04-28T05:10:11.549Z,23.25
2023-04-28T05:12:59.838Z,28.60
2023-04-28T05:15:47.460Z,27.15
2023-04-28T05:18:48.851Z,23.33
2023-04-28T05:21:37.871Z,23.13
2023-04-28T05:24:26.249Z,26.15
2023-04-28T05:27:13.862Z,30.10
2023-04-28T05:30:01.237Z,22.08
2023-04-28T05:32:49.248Z,24.17
2023-04-28T05:35:37.533Z,23.45
2023-04-28T05:38:27.377Z,27.65
2023-04-28T05:41:16.446Z,29.83
2023-04-28T05:44:04.919Z,25.58
2023-04-28T05:46:52.856Z,24.95
2023-04-28T05:49:45.475Z,28.35
2023-04-28T05:52:33.200Z,21.90
2023-04-28T05:55:22.424Z,21.10
2023-04-28T05:58:09.989Z,23.90
2023-04-28T06:00:58.371Z,21.88
2023-04-28T06:03:46.614Z,26.55
2023-04-28T06:06:34.596Z,26.50
2023-04-28T06:09:22.668Z,24.20
2023-04-28T06:12:11.930Z,24.88
2023-04-28T06:15:01.289Z,22.00
2023-04-28T06:17:49.462Z,21.27
2023-04-28T06:20:37.749Z,26.38
2023-04-28T06:23:25.072Z,21.80
2023-04-28T06:26:15.208Z,27.50
2023-04-28T06:29:05.835Z,21.70
2023-04-28T06:31:57.608Z,21.60
2023-04-28T06:34:45.833Z,22.30
2023-04-28T06:37:33.413Z,22.77
2023-04-28T06:40:21.122Z,19.85
2023-04-28T06:43:13.621Z,24.55
2023-04-28T06:46:26.073Z,25.38
2023-04-28T06:49:13.793Z,21.40
2023-04-28T06:52:01.353Z,19.65
2023-04-28T06:54:51.557Z,22.73
2023-04-28T06:57:39.237Z,17.70
2023-04-28T07:00:27.082Z,22.42
2023-04-28T07:03:16.160Z,18.80
2023-04-28T07:06:04.249Z,15.70
2023-04-28T07:08:51.837Z,18.17
2023-04-28T07:11:39.423Z,18.15
2023-04-28T07:14:26.993Z,18.70
2023-04-28T07:17:14.692Z,13.38
2023-04-28T07:20:04.318Z,20.90
2023-04-28T07:22:51.622Z,18.75
2023-04-28T07:25:40.355Z,13.98
2023-04-28T07:28:28.236Z,16.20
2023-04-28T07:31:15.659Z,16.27
2023-04-28T07:34:03.082Z,14.75
2023-04-28T07:36:51.824Z,15.43
2023-04-28T07:39:40.702Z,14.43
2023-04-28T07:42:28.487Z,15.10
2023-04-28T07:45:16.976Z,13.98
2023-04-28T07:48:04.795Z,16.42
2023-04-28T07:50:52.512Z,16.35
2023-04-28T07:53:41.556Z,9.77
2023-04-28T07:56:29.143Z,13.60
2023-04-28T07:59:44.342Z,14.80
2023-04-28T08:02:32.205Z,10.50
2023-04-28T08:05:20.053Z,10.68
2023-04-28T08:08:28.882Z,12.00
2023-04-28T08:11:48.876Z,13.23
2023-04-28T08:15:01.568Z,11.25
2023-04-28T08:17:49.341Z,13.05
2023-04-28T08:21:03.771Z,8.82
2023-04-28T08:23:51.350Z,8.90
2023-04-28T08:26:39.115Z,12.13
2023-04-28T08:33:51.383Z,14.82
2023-04-28T08:36:38.883Z,11.77
2023-04-28T08:39:27.900Z,11.05
2023-04-28T08:42:15.797Z,9.30
2023-04-28T08:45:06.054Z,9.80
2023-04-28T08:47:56.221Z,10.48
2023-04-28T08:50:50.139Z,11.30
2023-04-28T08:54:06.131Z,9.07
2023-04-28T08:56:48.725Z,9.65
2023-04-28T08:59:36.425Z,8.05
2023-04-28T09:02:25.518Z,10.50
2023-04-28T09:05:15.760Z,9.05
2023-04-28T09:08:04.056Z,10.63
2023-04-28T09:11:08.625Z,14.90
2023-04-28T09:14:14.261Z,9.75
2023-04-28T09:17:02.926Z,13.50
2023-04-28T09:19:51.983Z,11.77
2023-04-28T09:22:39.797Z,11.32
2023-04-28T09:25:28.061Z,10.30
2023-04-28T09:28:23.187Z,6.82
2023-04-28T09:31:25.255Z,8.82
2023-04-28T09:34:13.418Z,7.50
2023-04-28T09:37:15.671Z,9.82
2023-04-28T09:40:09.490Z,7.63
2023-04-28T09:42:57.246Z,12.07
2023-04-28T09:45:45.893Z,9.55
2023-04-28T09:48:35.553Z,13.35
2023-04-28T09:51:23.404Z,11.13
2023-04-28T09:54:13.856Z,9.45
2023-04-28T09:57:01.962Z,9.52
2023-04-28T09:59:50.958Z,8.88
2023-04-28T10:02:43.679Z,8.18
2023-04-28T10:05:33.162Z,10.63
2023-04-28T10:08:21.751Z,11.63
2023-04-28T10:11:11.141Z,10.50
2023-04-28T10:13:58.672Z,8.63
2023-04-28T10:16:47.785Z,8.25
2023-04-28T10:19:36.159Z,7.95
2023-04-28T10:22:49.164Z,8.68
2023-04-28T10:25:39.234Z,11.27
2023-04-28T10:28:28.756Z,8.30
2023-04-28T10:31:18.259Z,7.85
2023-04-28T10:34:25.556Z,9.10
2023-04-28T10:37:15.031Z,7.32
2023-04-28T10:40:36.431Z,11.82
2023-04-28T10:43:40.097Z,8.32
2023-04-28T10:46:27.934Z,10.68
2023-04-28T10:49:15.670Z,9.68
2023-04-28T10:52:03.331Z,8.63
2023-04-28T10:55:24.151Z,8.05
2023-04-28T10:58:34.373Z,8.60
2023-04-28T11:01:32.545Z,7.93
2023-04-28T11:04:20.602Z,7.97
2023-04-28T11:07:14.732Z,9.45
2023-04-28T11:10:02.912Z,8.00
2023-04-28T11:13:24.352Z,7.82
2023-04-28T11:16:11.954Z,6.20
2023-04-28T11:19:05.804Z,7.90
2023-04-28T11:21:55.134Z,6.78
2023-04-28T11:24:43.026Z,8.57
2023-04-28T11:27:31.816Z,11.35
2023-04-28T11:30:24.226Z,8.63
2023-04-28T11:33:12.058Z,8.40
2023-04-28T11:36:01.088Z,6.88
2023-04-28T11:38:49.379Z,7.95
2023-04-28T11:41:38.584Z,5.45
2023-04-28T11:44:28.149Z,5.38
2023-04-28T11:47:15.807Z,9.05
2023-04-28T11:50:03.723Z,6.38
2023-04-28T11:52:53.816Z,7.35
2023-04-28T11:55:41.670Z,8.52
2023-04-28T11:58:29.083Z,6.88
2023-04-28T12:01:16.694Z,8.27
2023-04-28T12:04:05.097Z,6.25
2023-04-28T12:07:01.442Z,8.02
2023-04-28T12:10:10.904Z,7.25
2023-04-28T12:12:58.485Z,8.35
2023-04-28T12:15:46.454Z,6.90
2023-04-28T12:18:34.401Z,5.88
2023-04-28T12:21:22.973Z,6.18
2023-04-28T12:24:18.607Z,5.88
2023-04-28T12:27:21.927Z,4.97
2023-04-28T12:30:31.108Z,6.03
2023-04-28T12:33:26.144Z,7.60
2023-04-28T12:36:13.971Z,6.25
2023-04-28T12:39:01.996Z,6.70
2023-04-28T12:41:49.629Z,6.95
2023-04-28T12:44:40.962Z,6.45
2023-04-28T12:47:29.208Z,9.02
2023-04-28T12:50:16.857Z,6.72
2023-04-28T12:53:04.911Z,7.93
2023-04-28T12:55:53.062Z,8.80
2023-04-28T12:58:42.424Z,8.32
2023-04-28T13:01:31.722Z,6.53
2023-04-28T13:04:19.842Z,7.93
2023-04-28T13:07:08.428Z,4.88
2023-04-28T13:09:57.393Z,4.88
2023-04-28T13:12:44.996Z,4.85
2023-04-28T13:15:32.653Z,4.43
2023-04-28T13:18:23.568Z,6.75
2023-04-28T13:21:11.860Z,4.22
2023-04-28T13:23:59.450Z,7.10
2023-04-28T13:26:47.361Z,4.50
2023-04-28T13:29:35.177Z,4.65
2023-04-28T13:32:22.920Z,7.32
2023-04-28T13:35:12.024Z,6.00
2023-04-28T13:38:02.637Z,4.28
2023-04-28T13:40:50.413Z,4.88
2023-04-28T13:43:38.387Z,6.70
2023-04-28T13:46:25.823Z,4.03
2023-04-28T13:49:13.530Z,6.60
2023-04-28T13:52:03.666Z,6.03
2023-04-28T13:54:51.189Z,5.55
2023-04-28T13:57:39.191Z,8.70
2023-04-28T14:00:26.943Z,5.88
2023-04-28T14:03:15.800Z,5.70
2023-04-28T14:06:04.349Z,6.78
2023-04-28T14:08:53.410Z,5.63
2023-04-28T14:11:41.209Z,4.95
2023-04-28T14:14:28.936Z,5.30
2023-04-28T14:17:16.738Z,6.20
2023-04-28T14:20:05.067Z,4.32
2023-04-28T14:22:52.479Z,3.95
2023-04-28T14:25:41.695Z,4.88
2023-04-28T14:28:29.752Z,5.70
2023-04-28T14:31:18.219Z,3.22
2023-04-28T14:34:05.760Z,4.50
2023-04-28T14:36:53.374Z,2.92
2023-04-28T14:39:41.188Z,3.67
2023-04-28T14:42:32.449Z,4.28
2023-04-28T14:45:20.183Z,3.03
2023-04-28T14:48:10.556Z,4.03
2023-04-28T14:50:59.778Z,4.78
2023-04-28T14:53:47.238Z,8.98
2023-04-28T14:56:34.746Z,4.32
2023-04-28T14:59:24.102Z,4.82
2023-04-28T15:02:12.091Z,2.75
2023-04-28T15:05:00.197Z,3.70
2023-04-28T15:07:48.344Z,5.65
2023-04-28T15:10:40.661Z,4.35
2023-04-28T15:13:28.764Z,4.88
2023-04-28T15:16:17.725Z,6.22
2023-04-28T15:19:06.557Z,4.68
2023-04-28T15:21:54.214Z,5.28
2023-04-28T15:24:41.771Z,4.47
2023-04-28T15:27:29.557Z,4.97
2023-04-28T15:30:17.110Z,7.00
2023-04-28T15:33:06.508Z,4.85
2023-04-28T15:35:54.550Z,4.22
2023-04-28T15:38:43.126Z,5.90
2023-04-28T15:41:31.010Z,7.03
2023-04-28T15:44:18.737Z,5.65
2023-04-28T15:47:06.299Z,4.97
2023-04-28T15:49:55.556Z,5.25
2023-04-28T15:52:46.163Z,5.95
2023-04-28T15:55:33.944Z,6.47
2023-04-28T15:58:21.684Z,4.82
2023-04-28T16:01:09.446Z,5.88
2023-04-28T16:03:57.392Z,6.55
2023-04-28T16:06:46.582Z,9.70
2023-04-28T16:09:34.121Z,5.28
2023-04-28T16:12:21.800Z,5.63
2023-04-28T16:15:12.361Z,7.72
2023-04-28T16:18:00.461Z,7.28
2023-04-28T16:20:48.145Z,6.78
2023-04-28T16:23:37.869Z,4.35
2023-04-28T16:26:26.004Z,4.70
2023-04-28T16:29:14.395Z,2.95
2023-04-28T16:32:02.370Z,3.92
2023-04-28T16:34:51.075Z,7.35
2023-04-28T16:37:39.282Z,5.07
2023-04-28T16:40:29.082Z,5.90
2023-04-28T16:43:16.687Z,4.43
2023-04-28T16:46:04.474Z,5.72
2023-04-28T16:48:51.928Z,6.55
2023-04-28T16:51:39.581Z,6.88
2023-04-28T16:54:28.443Z,3.60
2023-04-28T16:57:17.664Z,6.65
2023-04-28T17:00:06.394Z,4.43
2023-04-28T17:02:54.349Z,7.05
2023-04-28T17:05:42.175Z,6.70
2023-04-28T17:08:29.685Z,6.55
2023-04-28T17:11:18.723Z,8.85
2023-04-28T17:14:07.985Z,7.38
2023-04-28T17:16:55.983Z,7.38
2023-04-28T17:19:43.835Z,6.78
2023-04-28T17:22:33.042Z,6.85
2023-04-28T17:25:21.050Z,4.20
2023-04-28T17:28:08.778Z,6.75
2023-04-28T17:30:58.077Z,5.35
2023-04-28T17:33:45.880Z,8.32
2023-04-28T17:36:33.762Z,6.15
2023-04-28T17:39:21.418Z,7.97
2023-04-28T17:42:08.837Z,14.43
2023-04-28T17:44:56.475Z,13.32
2023-04-28T17:47:45.662Z,8.27
2023-04-28T17:50:33.332Z,9.15
2023-04-28T17:53:21.640Z,6.30
2023-04-28T17:56:09.340Z,10.98
2023-04-28T17:58:57.056Z,10.52
2023-04-28T18:01:45.003Z,9.88
2023-04-28T18:04:33.822Z,6.65
2023-04-28T18:07:21.129Z,7.10
2023-04-28T18:10:08.937Z,12.25
2023-04-28T18:12:56.485Z,8.05
2023-04-28T18:15:46.392Z,5.72
2023-04-28T18:18:35.592Z,7.60
2023-04-28T18:21:24.856Z,5.82
2023-04-28T18:24:12.377Z,7.10
2023-04-28T18:27:00.409Z,7.78
2023-04-28T18:29:48.081Z,7.03
2023-04-28T18:32:35.825Z,7.35
2023-04-28T18:35:23.150Z,8.73
2023-04-28T18:38:11.982Z,5.55
2023-04-28T18:41:00.975Z,7.20
2023-04-28T18:43:48.402Z,8.43
2023-04-28T18:46:35.937Z,6.78
2023-04-28T18:49:24.824Z,11.77
2023-04-28T18:52:12.882Z,8.45
2023-04-28T18:55:01.674Z,8.45
2023-04-28T18:57:49.408Z,7.95
2023-04-28T19:00:37.440Z,9.45
2023-04-28T19:03:25.084Z,8.10
2023-04-28T19:06:13.680Z,7.93
2023-04-28T19:09:01.658Z,9.20
2023-04-28T19:11:50.492Z,8.77
2023-04-28T19:14:38.346Z,11.85
2023-04-28T19:17:26.329Z,11.30
2023-04-28T19:20:14.566Z,12.45
2023-04-28T19:23:02.957Z,10.35
2023-04-28T19:25:50.609Z,12.05
2023-04-28T19:28:39.612Z,13.13
2023-04-28T19:31:28.758Z,12.93
2023-04-28T19:34:16.751Z,11.48
2023-04-28T19:37:04.449Z,9.75
2023-04-28T19:39:53.108Z,13.20
2023-04-28T19:42:41.085Z,19.40
2023-04-28T19:45:30.432Z,19.70
2023-04-28T19:48:18.937Z,15.98
2023-04-28T19:51:07.220Z,18.45
2023-04-28T19:53:55.321Z,18.42
2023-04-28T19:56:42.822Z,15.50
2023-04-28T19:59:30.603Z,17.77
2023-04-28T20:02:21.023Z,17.30
2023-04-28T20:05:09.584Z,17.50
2023-04-28T20:07:57.432Z,20.58
2023-04-28T20:10:44.890Z,13.82
2023-04-28T20:13:33.015Z,18.48
2023-04-28T20:16:21.110Z,15.05
2023-04-28T20:19:10.924Z,17.50
2023-04-28T20:21:58.711Z,16.08
2023-04-28T20:24:46.320Z,12.75
2023-04-28T20:27:35.150Z,13.13
2023-04-28T20:30:22.688Z,15.25
2023-04-28T20:33:10.810Z,13.07
2023-04-28T20:35:59.961Z,11.70
2023-04-28T20:38:47.560Z,11.32
2023-04-28T20:41:35.154Z,13.63
2023-04-28T20:44:23.134Z,11.23
2023-04-28T20:47:11.026Z,14.98
2023-04-28T20:49:59.000Z,12.88
2023-04-28T20:52:49.129Z,12.48
2023-04-28T20:55:36.800Z,13.48
2023-04-28T20:58:24.618Z,13.40
2023-04-28T21:01:12.350Z,15.20
2023-04-28T21:04:00.546Z,12.40
2023-04-28T21:06:51.005Z,12.20
2023-04-28T21:09:42.220Z,9.95
2023-04-28T21:12:30.092Z,13.02
2023-04-28T21:15:18.120Z,11.02
2023-04-28T21:18:06.025Z,12.05
2023-04-28T21:20:54.753Z,15.30
2023-04-28T21:23:42.913Z,11.32
2023-04-28T21:26:31.990Z,10.68
2023-04-28T21:29:20.055Z,15.45
2023-04-28T21:32:07.816Z,11.13
2023-04-28T21:34:55.653Z,13.80
2023-04-28T21:37:43.122Z,13.52
2023-04-28T21:40:30.686Z,11.88
2023-04-28T21:43:20.426Z,11.20
2023-04-28T21:46:08.048Z,11.23
2023-04-28T21:48:55.791Z,10.40
2023-04-28T21:51:43.650Z,10.95
2023-04-28T21:54:31.804Z,12.60
2023-04-28T21:57:19.535Z,14.07
2023-04-28T22:00:12.686Z,13.63
2023-04-28T22:03:03.704Z,13.20
2023-04-28T22:05:51.842Z,16.48
2023-04-28T22:08:39.627Z,14.85
2023-04-28T22:11:28.404Z,15.38
2023-04-28T22:14:30.593Z,13.18
2023-04-28T22:17:24.646Z,11.18
2023-04-28T22:20:13.113Z,10.82
2023-04-28T22:23:00.589Z,12.45
2023-04-28T22:25:49.288Z,11.23
2023-04-28T22:28:37.611Z,11.10
2023-04-28T22:31:25.254Z,11.98
2023-04-28T22:34:13.983Z,13.63
2023-04-28T22:37:01.770Z,12.73
2023-04-28T22:39:49.437Z,18.27
2023-04-28T22:42:38.139Z,18.05
2023-04-28T22:45:25.740Z,19.05
2023-04-28T22:48:14.024Z,15.52
2023-04-28T22:51:04.130Z,18.70
2023-04-28T22:53:51.868Z,16.17
2023-04-28T22:56:39.351Z,15.10
2023-04-28T22:59:27.905Z,17.60
2023-04-28T23:02:15.934Z,15.10
2023-04-28T23:05:04.390Z,14.68
2023-04-28T23:07:53.490Z,14.77
2023-04-28T23:10:41.146Z,15.68
2023-04-28T23:13:28.680Z,16.05
2023-04-28T23:16:16.333Z,16.08
2023-04-28T23:19:03.891Z,20.08
2023-04-28T23:21:51.539Z,16.27
2023-04-28T23:24:40.964Z,20.13
2023-04-28T23:27:28.818Z,16.88
2023-04-28T23:30:17.185Z,18.48
2023-04-28T23:33:05.231Z,15.05
2023-04-28T23:35:53.557Z,17.75
2023-04-28T23:38:41.369Z,19.08
2023-04-28T23:41:30.571Z,15.93
2023-04-28T23:44:18.489Z,15.43
2023-04-28T23:47:05.934Z,18.42
2023-04-28T23:49:53.763Z,13.43
2023-04-28T23:52:42.835Z,16.52
2023-04-28T23:55:30.441Z,15.30
2023-04-28T23:58:19.312Z,16.63
